Time;durP1;ratioP1;P1;durP2;ratioP2;P2;SDS_P1;SDS_P2;PMS_P1;PMS_P2;Temp;Humidity;BMP_temperature;BMP_pressure;BME280_temperature;BME280_humidity;BME280_pressure;Samples;Min_cycle;Max_cycle;Signal;HPM_P1;HPM_P2
2023/06/16 00:01:41;;;;;;;4.47;3.80;;;16.80;95.60;;;;;;6148641;23;20020;-51
2023/06/16 00:04:08;;;;;;;3.65;3.35;;;16.80;95.70;;;;;;6149147;23;20532;-52
2023/06/16 00:06:33;;;;;;;3.65;3.28;;;16.80;95.30;;;;;;6149761;23;20040;-55
2023/06/16 00:09:00;;;;;;;3.97;3.65;;;16.70;94.90;;;;;;6149745;23;20040;-53
2023/06/16 00:11:29;;;;;;;3.42;3.08;;;16.70;95.30;;;;;;6149744;23;20427;-51
2023/06/16 00:13:56;;;;;;;4.32;3.30;;;16.80;95.10;;;;;;6149375;23;19997;-53
2023/06/16 00:16:23;;;;;;;4.00;3.58;;;16.80;94.90;;;;;;6149938;23;20005;-53
2023/06/16 00:18:57;;;;;;;4.05;3.40;;;16.80;95.50;;;;;;6149317;23;20006;-51
2023/06/16 00:21:29;;;;;;;4.63;3.53;;;16.80;95.70;;;;;;6150291;23;20017;-52
2023/06/16 00:23:56;;;;;;;4.60;3.33;;;16.80;95.70;;;;;;6149777;23;20013;-53
2023/06/16 00:26:23;;;;;;;4.30;3.20;;;16.80;96.00;;;;;;6150964;23;20005;-54
2023/06/16 00:28:48;;;;;;;3.38;3.08;;;16.80;96.20;;;;;;6149936;23;20457;-52
2023/06/16 00:31:15;;;;;;;3.55;3.20;;;16.80;96.50;;;;;;6148610;23;20096;-54
2023/06/16 00:33:40;;;;;;;4.38;3.30;;;16.70;96.50;;;;;;6149393;23;20101;-52
2023/06/16 00:36:06;;;;;;;4.03;3.45;;;16.70;96.50;;;;;;6149375;23;20052;-53
2023/06/16 00:38:32;;;;;;;3.65;3.30;;;16.70;96.60;;;;;;6149386;23;20397;-52
2023/06/16 00:40:57;;;;;;;4.10;3.70;;;16.70;96.60;;;;;;6149257;23;20101;-52
2023/06/16 00:43:23;;;;;;;4.35;3.80;;;16.70;96.80;;;;;;6150483;23;20005;-53
2023/06/16 00:45:51;;;;;;;5.07;4.00;;;16.70;97.00;;;;;;6150767;23;20033;-53
2023/06/16 00:48:17;;;;;;;5.68;3.63;;;16.70;97.10;;;;;;6146474;23;20002;-52
2023/06/16 00:50:43;;;;;;;3.90;3.47;;;16.70;97.30;;;;;;6151490;23;20002;-52
2023/06/16 00:53:10;;;;;;;3.47;3.13;;;16.60;97.20;;;;;;6151222;23;20457;-51
2023/06/16 00:55:36;;;;;;;6.10;3.50;;;16.60;97.10;;;;;;6152047;23;20002;-51
2023/06/16 00:58:03;;;;;;;4.30;3.22;;;16.60;97.30;;;;;;6149921;23;20091;-52
2023/06/16 01:00:32;;;;;;;4.32;3.88;;;16.60;97.50;;;;;;6148608;23;20010;-51
2023/06/16 01:02:57;;;;;;;4.32;3.42;;;16.60;97.50;;;;;;6148734;23;20005;-52
2023/06/16 01:05:24;;;;;;;4.15;3.75;;;16.60;97.60;;;;;;6150087;23;20012;-52
2023/06/16 01:08:18;;;;;;;4.10;3.65;;;16.50;97.80;;;;;;6151242;23;20028;-51
2023/06/16 01:11:10;;;;;;;5.07;3.60;;;16.50;97.80;;;;;;6151518;23;20006;-51
2023/06/16 01:13:59;;;;;;;3.75;3.28;;;16.50;97.80;;;;;;6150703;23;20035;-52
2023/06/16 01:16:29;;;;;;;4.65;3.45;;;16.50;97.90;;;;;;6151610;23;20009;-54
2023/06/16 01:18:55;;;;;;;5.10;3.58;;;16.50;97.90;;;;;;6151342;23;20010;-52
2023/06/16 01:21:31;;;;;;;6.25;4.22;;;16.50;98.00;;;;;;6151194;23;20003;-55
2023/06/16 01:24:07;;;;;;;3.35;2.97;;;16.50;98.20;;;;;;6151009;23;20005;-54
2023/06/16 01:26:40;;;;;;;3.97;3.50;;;16.40;98.20;;;;;;6151496;23;20460;-54
2023/06/16 01:29:08;;;;;;;4.72;3.58;;;16.40;98.10;;;;;;6151344;23;20462;-55
2023/06/16 01:31:36;;;;;;;4.25;3.75;;;16.40;98.00;;;;;;6150810;23;20024;-53
2023/06/16 01:34:02;;;;;;;4.25;3.83;;;16.40;98.10;;;;;;6151128;23;20002;-55
2023/06/16 01:36:31;;;;;;;3.72;3.17;;;16.40;98.30;;;;;;6151165;23;20009;-52
2023/06/16 01:39:01;;;;;;;3.95;3.63;;;16.40;98.30;;;;;;6151015;23;20426;-52
2023/06/16 01:41:28;;;;;;;3.30;3.00;;;16.30;98.20;;;;;;6151041;23;20096;-56
2023/06/16 01:43:55;;;;;;;3.90;3.60;;;16.30;98.40;;;;;;6150805;23;20002;-52
2023/06/16 01:46:22;;;;;;;4.47;3.95;;;16.30;98.50;;;;;;6150640;23;20005;-52
2023/06/16 01:48:47;;;;;;;4.50;3.28;;;16.30;98.70;;;;;;6150782;23;20048;-52
2023/06/16 01:51:14;;;;;;;4.05;3.35;;;16.30;98.70;;;;;;6149966;23;20005;-53
2023/06/16 01:53:39;;;;;;;4.95;3.63;;;16.30;98.80;;;;;;6149381;23;20009;-52
2023/06/16 01:56:05;;;;;;;4.18;3.28;;;16.30;99.00;;;;;;6150467;23;20098;-52
2023/06/16 01:58:31;;;;;;;4.60;3.63;;;16.30;98.90;;;;;;6151114;23;20005;-51
2023/06/16 02:01:08;;;;;;;6.13;3.58;;;16.30;98.90;;;;;;6150634;23;20017;-55
2023/06/16 02:03:45;;;;;;;3.65;3.22;;;16.30;99.00;;;;;;6150810;23;20431;-53
2023/06/16 02:06:22;;;;;;;3.85;3.55;;;16.30;98.90;;;;;;6151116;23;20001;-53
2023/06/16 02:08:50;;;;;;;3.78;3.40;;;16.30;98.90;;;;;;6150941;23;19998;-56
2023/06/16 02:11:16;;;;;;;4.72;3.63;;;16.30;99.10;;;;;;6149139;23;20012;-52
2023/06/16 02:13:43;;;;;;;4.78;4.18;;;16.20;99.40;;;;;;6150363;23;20521;-54
2023/06/16 02:16:09;;;;;;;4.82;3.88;;;16.20;99.20;;;;;;6150976;23;20006;-52
2023/06/16 02:18:35;;;;;;;3.90;3.60;;;16.20;98.90;;;;;;6150309;23;20002;-57
2023/06/16 02:21:00;;;;;;;5.53;3.88;;;16.20;98.90;;;;;;6150835;23;20006;-54
2023/06/16 02:23:26;;;;;;;4.80;3.72;;;16.10;98.90;;;;;;6150727;23;20013;-52
2023/06/16 02:25:52;;;;;;;5.40;3.53;;;16.10;98.80;;;;;;6150173;23;20039;-52
2023/06/16 02:28:17;;;;;;;4.80;3.67;;;16.10;98.70;;;;;;6150348;23;20032;-53
2023/06/16 02:30:44;;;;;;;4.95;3.72;;;16.10;99.00;;;;;;6149762;23;20022;-52
2023/06/16 02:33:12;;;;;;;4.03;3.63;;;16.00;99.50;;;;;;6150760;23;20426;-51
2023/06/16 02:35:38;;;;;;;7.07;4.10;;;16.00;99.40;;;;;;6148902;23;20076;-56
2023/06/16 02:38:04;;;;;;;4.00;3.70;;;16.00;99.80;;;;;;6151060;23;20435;-55
2023/06/16 02:40:30;;;;;;;5.38;4.63;;;15.90;99.90;;;;;;6148596;23;20017;-53
2023/06/16 02:42:55;;;;;;;5.68;3.95;;;15.90;99.90;;;;;;6150648;23;20013;-53
2023/06/16 02:45:21;;;;;;;4.70;3.85;;;15.80;99.90;;;;;;6150599;23;20394;-51
2023/06/16 02:47:46;;;;;;;4.10;3.65;;;15.70;99.90;;;;;;6150343;23;20005;-52
2023/06/16 02:50:12;;;;;;;6.60;3.90;;;15.70;99.90;;;;;;6150451;23;20008;-53
2023/06/16 02:52:41;;;;;;;4.88;4.15;;;15.70;99.90;;;;;;6149155;23;20010;-53
2023/06/16 02:55:08;;;;;;;4.30;3.90;;;15.60;99.90;;;;;;6149998;23;20071;-53
2023/06/16 02:57:33;;;;;;;5.00;3.72;;;15.60;99.90;;;;;;6150634;23;20010;-55
2023/06/16 02:59:59;;;;;;;6.95;3.70;;;15.60;99.90;;;;;;6149589;23;20006;-55
2023/06/16 03:02:25;;;;;;;3.78;3.38;;;15.60;99.90;;;;;;6148364;23;20014;-52
2023/06/16 03:04:50;;;;;;;4.05;3.65;;;15.60;99.90;;;;;;6149111;23;20073;-55
2023/06/16 03:07:17;;;;;;;6.63;3.90;;;15.60;99.90;;;;;;6149943;23;20014;-53
2023/06/16 03:09:43;;;;;;;3.78;3.40;;;15.60;99.90;;;;;;6150183;23;20351;-55
2023/06/16 03:12:09;;;;;;;4.00;3.60;;;15.60;99.90;;;;;;6149867;23;20080;-54
2023/06/16 03:14:35;;;;;;;5.95;4.00;;;15.50;99.90;;;;;;6149631;23;20005;-55
2023/06/16 03:17:01;;;;;;;3.83;3.50;;;15.50;99.90;;;;;;6149731;23;20295;-53
2023/06/16 03:19:27;;;;;;;5.20;3.30;;;15.50;99.90;;;;;;6149022;23;20081;-56
2023/06/16 03:21:53;;;;;;;4.35;3.80;;;15.50;99.90;;;;;;6149554;23;20072;-54
2023/06/16 03:24:18;;;;;;;4.57;4.03;;;15.50;99.90;;;;;;6148817;23;20002;-56
2023/06/16 03:26:46;;;;;;;4.10;3.70;;;15.40;99.90;;;;;;6149250;23;20013;-54
2023/06/16 03:29:12;;;;;;;4.63;4.22;;;15.40;99.90;;;;;;6149428;23;20001;-54
2023/06/16 03:31:39;;;;;;;5.32;3.97;;;15.40;99.90;;;;;;6148847;23;20088;-53
2023/06/16 03:34:05;;;;;;;4.97;3.83;;;15.40;99.90;;;;;;6148590;23;20111;-53
2023/06/16 03:36:35;;;;;;;4.95;4.05;;;15.40;99.90;;;;;;6149808;23;20445;-55
2023/06/16 03:39:05;;;;;;;3.97;3.67;;;15.40;99.90;;;;;;6149912;23;20315;-53
2023/06/16 03:41:34;;;;;;;4.45;4.05;;;15.30;99.90;;;;;;6149458;23;20001;-52
2023/06/16 03:43:59;;;;;;;4.07;3.78;;;15.30;99.90;;;;;;6149786;23;20076;-54
2023/06/16 03:46:27;;;;;;;7.00;4.57;;;15.30;99.90;;;;;;6149612;23;20005;-55
2023/06/16 03:48:53;;;;;;;7.47;4.78;;;15.30;99.90;;;;;;6149543;23;20008;-55
2023/06/16 03:51:18;;;;;;;5.18;3.92;;;15.30;99.90;;;;;;6149630;23;20337;-52
2023/06/16 03:53:44;;;;;;;6.97;4.43;;;15.30;99.90;;;;;;6149461;23;20017;-54
2023/06/16 03:56:09;;;;;;;5.13;4.53;;;15.30;99.90;;;;;;6148853;23;20037;-55
2023/06/16 03:58:35;;;;;;;5.72;4.70;;;15.20;99.90;;;;;;6149204;23;20059;-52
2023/06/16 04:01:02;;;;;;;4.70;4.30;;;15.20;99.90;;;;;;6149220;23;20020;-55
2023/06/16 04:03:27;;;;;;;4.93;4.43;;;15.20;99.90;;;;;;6149605;23;20021;-55
2023/06/16 04:05:53;;;;;;;6.75;4.75;;;15.30;99.90;;;;;;6149307;23;20016;-55
2023/06/16 04:08:20;;;;;;;5.68;5.03;;;15.20;99.90;;;;;;6149944;23;20044;-54
2023/06/16 04:10:46;;;;;;;5.07;4.30;;;15.20;99.90;;;;;;6148447;23;20056;-55
2023/06/16 04:13:11;;;;;;;5.15;4.57;;;15.20;99.90;;;;;;6149416;23;20657;-51
2023/06/16 04:15:37;;;;;;;5.13;4.63;;;15.20;99.90;;;;;;6150141;23;20001;-53
2023/06/16 04:18:03;;;;;;;5.57;4.97;;;15.20;99.90;;;;;;6151245;23;20006;-54
2023/06/16 04:20:28;;;;;;;4.90;4.00;;;15.20;99.90;;;;;;6151984;23;20108;-53
2023/06/16 04:22:54;;;;;;;6.55;4.63;;;15.20;99.90;;;;;;6151629;23;20039;-55
2023/06/16 04:25:21;;;;;;;5.22;4.72;;;15.30;99.90;;;;;;6149455;23;20036;-54
2023/06/16 04:27:49;;;;;;;5.50;5.00;;;15.30;99.90;;;;;;6151227;23;20738;-55
2023/06/16 04:30:15;;;;;;;5.90;5.13;;;15.40;99.90;;;;;;6150906;23;19998;-55
2023/06/16 04:32:44;;;;;;;5.45;4.95;;;15.40;99.90;;;;;;6149803;23;20006;-54
2023/06/16 04:35:10;;;;;;;6.50;5.32;;;15.40;99.90;;;;;;6150460;23;20565;-53
2023/06/16 04:37:35;;;;;;;5.63;5.10;;;15.40;99.90;;;;;;6151120;23;20017;-52
2023/06/16 04:40:01;;;;;;;6.22;5.63;;;15.50;99.90;;;;;;6151748;23;20350;-54
2023/06/16 04:42:28;;;;;;;7.47;5.55;;;15.50;99.90;;;;;;6151735;23;20425;-52
2023/06/16 04:44:53;;;;;;;6.07;5.43;;;15.60;99.90;;;;;;6150892;23;20010;-53
2023/06/16 04:47:19;;;;;;;6.90;6.20;;;15.60;99.90;;;;;;6151419;23;20575;-52
2023/06/16 04:49:45;;;;;;;10.25;7.30;;;15.70;99.90;;;;;;6151649;23;20005;-52
2023/06/16 04:52:11;;;;;;;8.63;6.65;;;15.70;99.90;;;;;;6151999;23;20056;-51
2023/06/16 04:54:37;;;;;;;9.40;6.18;;;15.80;99.90;;;;;;6150990;23;20077;-52
2023/06/16 04:57:02;;;;;;;6.72;6.07;;;15.90;99.90;;;;;;6151416;23;20064;-53
2023/06/16 04:59:31;;;;;;;6.10;5.50;;;15.90;99.90;;;;;;6150691;23;20503;-55
2023/06/16 05:01:57;;;;;;;7.55;6.38;;;16.00;99.90;;;;;;6149262;23;20036;-54
2023/06/16 05:04:23;;;;;;;7.55;6.82;;;16.00;99.90;;;;;;6151446;23;20029;-54
2023/06/16 05:06:48;;;;;;;8.40;6.85;;;16.10;99.90;;;;;;6150923;23;20001;-53
2023/06/16 05:09:14;;;;;;;7.00;6.30;;;16.10;99.90;;;;;;6150870;23;20002;-54
2023/06/16 05:11:40;;;;;;;7.35;5.65;;;16.10;99.90;;;;;;6147111;23;20007;-53
2023/06/16 05:14:06;;;;;;;8.30;6.65;;;16.10;99.90;;;;;;6146551;23;20006;-55
2023/06/16 05:16:31;;;;;;;5.55;5.05;;;16.10;99.90;;;;;;6149577;23;20037;-54
2023/06/16 05:18:57;;;;;;;8.55;6.82;;;16.10;99.90;;;;;;6150858;23;20016;-55
2023/06/16 05:21:25;;;;;;;10.13;7.07;;;16.10;99.90;;;;;;6150567;23;20013;-54
2023/06/16 05:23:53;;;;;;;7.20;6.50;;;16.20;99.90;;;;;;6149648;23;20060;-55
2023/06/16 05:26:21;;;;;;;7.85;7.15;;;16.30;99.90;;;;;;6151629;23;20008;-53
2023/06/16 05:28:46;;;;;;;8.23;7.13;;;16.30;99.90;;;;;;6151113;23;20032;-56
2023/06/16 05:31:12;;;;;;;7.20;6.60;;;16.30;99.90;;;;;;6147144;23;20030;-63
2023/06/16 05:33:37;;;;;;;7.68;6.40;;;16.40;99.90;;;;;;6174578;23;20010;-62
2023/06/16 05:36:03;;;;;;;8.02;7.20;;;16.40;99.90;;;;;;6150417;23;20133;-63
2023/06/16 05:38:29;;;;;;;8.48;7.07;;;16.40;99.90;;;;;;6150864;23;20005;-63
2023/06/16 05:40:55;;;;;;;8.13;6.93;;;16.60;99.90;;;;;;6150827;23;19998;-61
2023/06/16 05:43:20;;;;;;;7.15;6.55;;;16.60;99.90;;;;;;6150532;23;20009;-61
2023/06/16 05:45:46;;;;;;;7.07;6.47;;;16.70;99.90;;;;;;6150634;23;20040;-63
2023/06/16 05:48:12;;;;;;;7.57;6.82;;;16.80;99.90;;;;;;6151015;23;20430;-63
2023/06/16 05:50:37;;;;;;;8.07;6.90;;;16.90;99.90;;;;;;6149251;23;20401;-63
2023/06/16 05:53:04;;;;;;;9.80;6.78;;;17.00;99.90;;;;;;6149660;23;20590;-63
2023/06/16 05:55:30;;;;;;;8.18;7.38;;;17.10;99.90;;;;;;6150732;23;20059;-63
2023/06/16 05:57:55;;;;;;;8.07;7.13;;;17.10;99.90;;;;;;6151258;23;20445;-63
2023/06/16 06:00:21;;;;;;;9.25;7.45;;;17.30;99.90;;;;;;6150551;23;24558;-62
2023/06/16 06:02:46;;;;;;;7.90;6.68;;;17.40;99.90;;;;;;6149527;23;20036;-62
2023/06/16 06:05:12;;;;;;;8.88;8.07;;;17.40;99.90;;;;;;6150666;23;20008;-63
2023/06/16 06:07:38;;;;;;;9.60;8.35;;;17.50;99.90;;;;;;6150474;23;20009;-62
2023/06/16 06:10:03;;;;;;;8.30;7.60;;;17.60;99.90;;;;;;6150573;23;20085;-61
2023/06/16 06:12:29;;;;;;;11.00;9.20;;;17.60;99.90;;;;;;6150351;23;20025;-63
2023/06/16 06:14:55;;;;;;;9.68;7.40;;;17.70;99.90;;;;;;6149054;23;20446;-63
2023/06/16 06:17:20;;;;;;;11.52;9.25;;;17.80;99.90;;;;;;6148480;23;20032;-63
2023/06/16 06:19:46;;;;;;;11.27;8.77;;;17.90;99.90;;;;;;6148999;23;20005;-63
2023/06/16 06:22:11;;;;;;;9.90;8.40;;;18.00;99.90;;;;;;6150413;23;20064;-62
2023/06/16 06:24:37;;;;;;;10.38;8.10;;;18.10;99.90;;;;;;6150102;23;20002;-64
2023/06/16 06:27:03;;;;;;;8.35;7.47;;;18.30;99.90;;;;;;6150591;23;20002;-64
2023/06/16 06:29:28;;;;;;;8.32;7.63;;;18.50;99.90;;;;;;6150621;23;20602;-63
2023/06/16 06:31:54;;;;;;;9.30;8.25;;;18.70;99.90;;;;;;6149860;23;20307;-64
2023/06/16 06:34:19;;;;;;;7.20;6.60;;;19.00;99.90;;;;;;6149539;23;20012;-63
2023/06/16 06:36:47;;;;;;;9.98;7.15;;;19.10;99.90;;;;;;6148845;23;20372;-63
2023/06/16 06:39:13;;;;;;;9.13;6.65;;;19.20;99.90;;;;;;6150050;23;20085;-62
2023/06/16 06:41:40;;;;;;;8.55;7.18;;;19.20;99.90;;;;;;6148206;23;20006;-63
2023/06/16 06:44:05;;;;;;;8.27;7.38;;;19.30;99.90;;;;;;6148036;23;20030;-63
2023/06/16 06:46:31;;;;;;;7.35;6.65;;;19.40;99.90;;;;;;6149989;23;20013;-64
2023/06/16 06:48:57;;;;;;;10.10;6.90;;;19.50;99.90;;;;;;6150533;23;20008;-63
2023/06/16 06:51:23;;;;;;;8.52;7.50;;;19.50;99.90;;;;;;6149883;23;20005;-63
2023/06/16 06:53:48;;;;;;;11.18;7.75;;;19.60;99.90;;;;;;6150124;23;20454;-64
2023/06/16 06:56:15;;;;;;;10.18;7.65;;;19.70;99.90;;;;;;6148624;23;20010;-63
2023/06/16 06:58:41;;;;;;;7.68;6.97;;;19.70;99.90;;;;;;6149887;23;20466;-64
2023/06/16 07:01:07;;;;;;;9.10;7.30;;;19.80;99.90;;;;;;6147378;23;20017;-63
2023/06/16 07:03:32;;;;;;;9.30;6.20;;;19.80;99.90;;;;;;6150610;23;20005;-63
2023/06/16 07:05:58;;;;;;;8.00;6.95;;;19.80;99.90;;;;;;6149955;23;20064;-63
2023/06/16 07:08:23;;;;;;;8.20;7.05;;;19.90;99.90;;;;;;6149769;23;20160;-65
2023/06/16 07:10:49;;;;;;;11.95;7.32;;;20.00;99.90;;;;;;6149753;23;20199;-63
2023/06/16 07:13:15;;;;;;;8.65;6.63;;;20.10;99.90;;;;;;6149356;23;20338;-64
2023/06/16 07:15:41;;;;;;;6.43;5.80;;;20.10;99.90;;;;;;6149253;23;20044;-64
2023/06/16 07:18:07;;;;;;;10.45;6.63;;;20.20;99.90;;;;;;6149606;23;20010;-63
2023/06/16 07:20:32;;;;;;;8.38;7.18;;;20.30;99.90;;;;;;6149615;23;20013;-63
2023/06/16 07:22:59;;;;;;;6.30;5.60;;;20.50;99.90;;;;;;6149174;23;20002;-64
2023/06/16 07:25:26;;;;;;;10.45;6.20;;;20.70;99.90;;;;;;6149137;23;20006;-64
2023/06/16 07:27:52;;;;;;;7.80;6.07;;;20.80;99.90;;;;;;6149256;23;20001;-63
2023/06/16 07:30:18;;;;;;;6.47;5.35;;;20.90;99.90;;;;;;6148952;23;20004;-63
2023/06/16 07:32:45;;;;;;;10.00;6.80;;;20.90;99.90;;;;;;6149469;23;20421;-65
2023/06/16 07:35:11;;;;;;;7.47;5.95;;;20.60;99.90;;;;;;6149358;23;20341;-64
2023/06/16 07:37:36;;;;;;;7.28;5.97;;;20.40;99.90;;;;;;6150026;23;20139;-65
2023/06/16 07:40:06;;;;;;;6.93;5.97;;;20.50;99.90;;;;;;6149466;23;20342;-64
2023/06/16 07:42:32;;;;;;;6.18;5.57;;;20.50;99.90;;;;;;6147865;23;20461;-64
2023/06/16 07:44:57;;;;;;;6.00;5.32;;;20.50;99.90;;;;;;6149387;23;20057;-64
2023/06/16 07:47:23;;;;;;;8.05;5.32;;;20.50;99.90;;;;;;6149546;23;20088;-64
2023/06/16 07:49:48;;;;;;;5.60;5.10;;;20.50;99.90;;;;;;6149228;23;20125;-64
2023/06/16 07:52:14;;;;;;;7.07;5.60;;;20.50;99.90;;;;;;6147251;23;19998;-64
2023/06/16 07:54:43;;;;;;;7.78;6.70;;;20.60;99.90;;;;;;6149400;23;20009;-64
2023/06/16 07:57:08;;;;;;;6.22;5.70;;;20.50;99.90;;;;;;6149787;23;20009;-64
2023/06/16 07:59:34;;;;;;;6.10;5.50;;;20.50;99.90;;;;;;6147943;23;20009;-64
2023/06/16 08:02:02;;;;;;;6.97;6.15;;;20.50;99.90;;;;;;6149069;23;20458;-64
2023/06/16 08:04:29;;;;;;;5.55;5.05;;;20.50;99.90;;;;;;6149431;23;20541;-64
2023/06/16 08:06:58;;;;;;;9.68;5.85;;;20.60;99.90;;;;;;6149477;23;20009;-65
2023/06/16 08:09:23;;;;;;;7.32;6.38;;;20.60;99.90;;;;;;6148086;23;20013;-64
2023/06/16 08:11:50;;;;;;;7.80;7.00;;;20.60;99.90;;;;;;6149630;23;20037;-63
2023/06/16 08:14:16;;;;;;;11.07;7.57;;;20.60;99.90;;;;;;6147174;23;20084;-64
2023/06/16 08:16:41;;;;;;;8.05;7.22;;;20.70;99.90;;;;;;6148497;23;20053;-65
2023/06/16 08:19:08;;;;;;;9.15;7.90;;;20.70;99.90;;;;;;6148669;23;20009;-64
2023/06/16 08:21:34;;;;;;;8.65;7.45;;;20.70;99.90;;;;;;6148305;23;20017;-64
2023/06/16 08:24:01;;;;;;;9.25;8.35;;;20.80;99.90;;;;;;6146699;23;20013;-64
2023/06/16 08:26:27;;;;;;;8.57;7.80;;;20.90;99.90;;;;;;6149253;23;20088;-64
2023/06/16 08:28:53;;;;;;;8.88;8.05;;;21.00;99.90;;;;;;6148755;23;20002;-64
2023/06/16 08:31:19;;;;;;;9.75;8.27;;;21.00;99.90;;;;;;6146586;23;20324;-68
2023/06/16 08:33:44;;;;;;;8.75;8.05;;;21.10;99.90;;;;;;6149170;23;20427;-64
2023/06/16 08:36:10;;;;;;;9.73;8.82;;;21.10;99.90;;;;;;6147870;23;20048;-64
2023/06/16 08:38:36;;;;;;;12.13;8.73;;;21.20;99.90;;;;;;6149093;23;20009;-64
2023/06/16 08:41:08;;;;;;;9.40;8.45;;;21.20;99.90;;;;;;6149079;23;20517;-64
2023/06/16 08:43:37;;;;;;;10.13;9.10;;;21.30;99.90;;;;;;6149723;23;20005;-65
2023/06/16 08:46:08;;;;;;;10.80;9.57;;;21.40;99.90;;;;;;6146739;23;20001;-65
2023/06/16 08:48:36;;;;;;;12.77;8.85;;;21.30;99.90;;;;;;6149569;23;19998;-65
2023/06/16 08:51:09;;;;;;;9.57;8.48;;;21.30;99.90;;;;;;6149048;23;20009;-64
2023/06/16 08:53:38;;;;;;;10.05;9.15;;;21.40;99.90;;;;;;6147011;23;20061;-65
2023/06/16 08:56:05;;;;;;;10.57;9.57;;;21.40;99.90;;;;;;6148754;23;19998;-65
2023/06/16 08:58:33;;;;;;;10.30;9.40;;;21.40;99.90;;;;;;6149151;23;20125;-64
2023/06/16 09:01:01;;;;;;;12.50;10.20;;;21.30;99.90;;;;;;6147435;23;20021;-64
2023/06/16 09:03:32;;;;;;;9.75;8.80;;;21.30;99.90;;;;;;6149245;23;20002;-64
2023/06/16 09:06:00;;;;;;;11.25;9.98;;;21.20;99.90;;;;;;6150903;23;20065;-64
2023/06/16 09:08:27;;;;;;;11.13;9.77;;;21.10;99.90;;;;;;6150441;23;20001;-65
2023/06/16 09:10:55;;;;;;;12.30;9.98;;;21.00;99.90;;;;;;6150524;23;20052;-64
2023/06/16 09:13:22;;;;;;;9.82;8.73;;;20.90;99.90;;;;;;6148822;23;19997;-64
2023/06/16 09:15:48;;;;;;;9.48;7.90;;;20.90;99.90;;;;;;6150863;23;20001;-64
2023/06/16 09:18:15;;;;;;;10.25;8.25;;;20.90;99.90;;;;;;6151071;23;20017;-64
2023/06/16 09:20:41;;;;;;;10.85;8.38;;;20.90;99.90;;;;;;6149022;23;20120;-63
2023/06/16 09:23:08;;;;;;;8.20;7.40;;;20.80;99.90;;;;;;6150673;23;20005;-64
2023/06/16 09:25:35;;;;;;;9.75;8.13;;;20.80;99.90;;;;;;6150551;23;20005;-63
2023/06/16 09:28:09;;;;;;;8.43;7.70;;;20.80;99.90;;;;;;6149894;23;20005;-63
2023/06/16 09:30:35;;;;;;;9.38;8.50;;;20.90;99.90;;;;;;6150176;23;20397;-64
2023/06/16 09:33:02;;;;;;;11.40;7.00;;;21.10;99.90;;;;;;6150218;23;20016;-63
2023/06/16 09:35:29;;;;;;;8.68;7.72;;;21.20;99.90;;;;;;6150043;23;20560;-64
2023/06/16 09:37:57;;;;;;;8.43;7.63;;;21.30;99.90;;;;;;6150296;23;20056;-65
2023/06/16 09:40:29;;;;;;;6.88;6.28;;;21.50;99.90;;;;;;6149892;23;20513;-65
2023/06/16 09:43:00;;;;;;;8.40;7.45;;;21.70;99.90;;;;;;6150202;23;20005;-65
2023/06/16 09:45:33;;;;;;;10.57;8.13;;;21.70;99.90;;;;;;6150167;23;20009;-65
2023/06/16 09:48:03;;;;;;;10.98;6.85;;;21.80;99.90;;;;;;6150646;23;20457;-67
2023/06/16 09:50:30;;;;;;;10.07;7.05;;;21.90;99.90;;;;;;6149956;23;20005;-65
2023/06/16 09:52:56;;;;;;;8.55;6.57;;;22.00;99.90;;;;;;6150128;23;20052;-65
2023/06/16 09:55:27;;;;;;;10.90;6.95;;;22.20;99.90;;;;;;6148803;23;19997;-65
2023/06/16 09:57:54;;;;;;;8.40;7.50;;;22.30;99.90;;;;;;6150076;23;20001;-65
2023/06/16 10:00:20;;;;;;;7.78;6.75;;;22.40;99.90;;;;;;6149372;23;20016;-65
2023/06/16 10:02:47;;;;;;;7.38;6.63;;;22.40;99.90;;;;;;6149882;23;20001;-64
2023/06/16 10:05:17;;;;;;;7.60;6.18;;;22.50;99.90;;;;;;6150334;23;20009;-65
2023/06/16 10:07:46;;;;;;;9.95;6.85;;;22.50;99.90;;;;;;6150114;23;20088;-67
2023/06/16 10:10:12;;;;;;;9.40;7.25;;;22.50;99.90;;;;;;6150200;23;20144;-64
2023/06/16 10:12:48;;;;;;;8.70;6.60;;;22.40;99.90;;;;;;6149930;23;20005;-65
2023/06/16 10:15:23;;;;;;;8.52;6.70;;;22.10;99.90;;;;;;6150201;23;19997;-65
2023/06/16 10:17:50;;;;;;;9.23;7.63;;;22.00;99.90;;;;;;6150342;23;20009;-64
2023/06/16 10:20:18;;;;;;;8.32;6.90;;;21.80;99.90;;;;;;6150492;23;20466;-65
2023/06/16 10:22:45;;;;;;;7.53;6.70;;;21.80;99.90;;;;;;6149829;23;20296;-65
2023/06/16 10:25:11;;;;;;;7.40;6.68;;;21.80;99.90;;;;;;6150283;23;20013;-63
2023/06/16 10:27:39;;;;;;;7.75;6.53;;;21.70;99.90;;;;;;6149208;23;20013;-64
2023/06/16 10:30:09;;;;;;;9.05;6.55;;;21.70;99.90;;;;;;6149411;23;20006;-64
2023/06/16 10:32:35;;;;;;;7.50;6.70;;;21.70;99.90;;;;;;6148936;23;20084;-65
2023/06/16 10:35:01;;;;;;;10.57;6.18;;;21.90;99.90;;;;;;6149774;23;20001;-64
2023/06/16 10:37:28;;;;;;;9.07;6.43;;;22.00;99.90;;;;;;6149271;23;20056;-65
2023/06/16 10:40:03;;;;;;;7.55;6.25;;;22.10;99.90;;;;;;6149268;23;20005;-65
2023/06/16 10:42:33;;;;;;;8.50;7.10;;;22.20;99.90;;;;;;6148781;23;20323;-66
2023/06/16 10:45:24;;;;;;;8.07;7.00;;;22.20;99.90;;;;;;6149119;23;20230;-66
2023/06/16 10:48:01;;;;;;;8.00;6.30;;;22.30;99.90;;;;;;6149684;23;20299;-65
2023/06/16 10:50:30;;;;;;;9.90;6.60;;;22.40;99.90;;;;;;6147906;23;20085;-66
2023/06/16 10:52:56;;;;;;;6.72;5.82;;;22.60;99.90;;;;;;6149673;23;19998;-65
2023/06/16 10:55:37;;;;;;;12.30;6.88;;;22.80;99.90;;;;;;6148807;23;19998;-65
2023/06/16 10:58:19;;;;;;;9.55;5.95;;;23.00;99.90;;;;;;6149080;23;20081;-64
2023/06/16 11:00:55;;;;;;;7.63;5.55;;;23.00;99.90;;;;;;6148604;23;20096;-67
2023/06/16 11:03:20;;;;;;;7.57;5.65;;;23.00;99.90;;;;;;6148419;23;20013;-66
2023/06/16 11:05:48;;;;;;;9.43;5.90;;;22.90;99.90;;;;;;6147961;23;20080;-67
2023/06/16 11:08:15;;;;;;;9.15;5.20;;;22.90;99.90;;;;;;6149325;23;20013;-65
2023/06/16 11:10:48;;;;;;;7.28;5.00;;;22.90;99.90;;;;;;6149216;23;20021;-66
2023/06/16 11:13:14;;;;;;;7.55;5.18;;;22.80;99.90;;;;;;6149573;23;20072;-65
2023/06/16 11:15:42;;;;;;;6.78;4.88;;;22.70;99.90;;;;;;6148719;23;20001;-64
2023/06/16 11:18:08;;;;;;;7.93;4.78;;;22.90;99.90;;;;;;6149917;23;20091;-65
2023/06/16 11:20:37;;;;;;;6.95;5.80;;;22.90;99.90;;;;;;6148756;23;20001;-64
2023/06/16 11:23:03;;;;;;;6.18;5.13;;;23.00;99.90;;;;;;6149876;23;20001;-66
2023/06/16 11:25:28;;;;;;;7.85;5.65;;;22.90;99.90;;;;;;6149066;23;20438;-65
2023/06/16 11:27:54;;;;;;;6.97;4.93;;;22.80;99.90;;;;;;6149133;23;20002;-67
2023/06/16 11:30:20;;;;;;;8.10;5.20;;;22.60;99.90;;;;;;6149015;23;20021;-66
2023/06/16 11:32:48;;;;;;;8.20;4.90;;;22.60;99.90;;;;;;6149060;23;20382;-66
2023/06/16 11:35:13;;;;;;;5.65;4.55;;;22.50;99.90;;;;;;6149169;23;19998;-66
2023/06/16 11:37:49;;;;;;;15.88;5.78;;;22.60;99.90;;;;;;6149435;23;20032;-66
2023/06/16 11:40:23;;;;;;;4.68;4.28;;;22.60;99.90;;;;;;6149652;23;20006;-65
2023/06/16 11:42:56;;;;;;;5.25;4.75;;;22.50;99.90;;;;;;6147375;23;20013;-66
2023/06/16 11:45:29;;;;;;;11.80;5.70;;;22.40;99.90;;;;;;6149321;23;20009;-65
2023/06/16 11:47:56;;;;;;;7.32;4.70;;;22.30;99.90;;;;;;6149131;23;20012;-66
2023/06/16 11:50:22;;;;;;;4.28;3.88;;;22.30;99.90;;;;;;6148948;23;20008;-66
2023/06/16 11:52:49;;;;;;;8.15;4.20;;;22.30;99.90;;;;;;6149056;23;20036;-66
2023/06/16 11:55:15;;;;;;;8.27;5.57;;;22.40;99.90;;;;;;6148928;23;20009;-65
2023/06/16 11:57:41;;;;;;;5.30;4.68;;;22.40;99.90;;;;;;6149312;23;20064;-66
2023/06/16 12:00:08;;;;;;;10.02;4.85;;;22.50;99.90;;;;;;6149199;23;20006;-65
2023/06/16 12:02:36;;;;;;;7.22;4.90;;;22.40;99.90;;;;;;6149385;23;20001;-64
2023/06/16 12:05:05;;;;;;;5.93;5.18;;;22.50;99.90;;;;;;6149413;23;20032;-63
2023/06/16 12:07:32;;;;;;;9.60;5.53;;;22.50;99.90;;;;;;6149237;23;20084;-66
2023/06/16 12:10:01;;;;;;;11.40;5.90;;;22.60;99.90;;;;;;6149346;23;20514;-65
2023/06/16 12:12:26;;;;;;;7.30;4.93;;;22.50;99.90;;;;;;6149372;23;20450;-63
2023/06/16 12:14:54;;;;;;;13.75;5.63;;;22.40;99.90;;;;;;6147293;23;20009;-63
2023/06/16 12:17:24;;;;;;;11.98;6.07;;;22.30;99.90;;;;;;6148881;23;20016;-66
2023/06/16 12:19:51;;;;;;;8.20;5.90;;;22.30;99.90;;;;;;6147410;23;20089;-64
2023/06/16 12:22:16;;;;;;;9.45;6.28;;;22.30;99.90;;;;;;6149081;23;20009;-64
2023/06/16 12:24:42;;;;;;;7.78;5.95;;;22.30;99.90;;;;;;6148750;23;20016;-64
2023/06/16 12:27:08;;;;;;;8.60;6.40;;;22.20;99.90;;;;;;6149022;23;20013;-64
2023/06/16 12:29:33;;;;;;;6.90;6.22;;;22.30;99.90;;;;;;6148692;23;20374;-63
2023/06/16 12:32:05;;;;;;;10.45;7.13;;;22.30;99.90;;;;;;6148613;23;20044;-66
2023/06/16 12:34:35;;;;;;;7.57;6.85;;;22.30;99.90;;;;;;6147267;23;20039;-64
2023/06/16 12:37:11;;;;;;;8.35;6.63;;;22.30;99.90;;;;;;6148558;23;20006;-64
2023/06/16 12:39:57;;;;;;;11.90;6.78;;;22.30;99.90;;;;;;6149235;23;20056;-62
2023/06/16 12:42:29;;;;;;;6.90;6.20;;;22.20;99.90;;;;;;6150425;23;20032;-65
2023/06/16 12:44:59;;;;;;;6.85;6.25;;;22.30;99.90;;;;;;6148946;23;20027;-67
2023/06/16 12:47:26;;;;;;;7.25;6.55;;;22.30;99.90;;;;;;6150853;23;20361;-63